Granite Canyon, Wyoming
Current Conditions -  °F | °C
As of 8:56 AM on Tuesday 21 Oct 2014 (Local Time) from KFEW Reporting Station
Broken Clouds Broken Clouds  
Wind Chill: 63°   Ceiling: 10000
Heat Index: 63°   Visibility: 10mi
Dew Point: 36°   Wind: 15mph
Humidity: 37%   Direction: 300°WNW
Pressure: 30.01"   Gusts: 18mph
Location:  41.0966°N, 105.138°W
Report Text: KFEW 211456Z AUTO 30013G16KT 10SM BKN100 17/02 A3001 RMK AO2 SLP117 T01710022 55000 $
Loading
Personal Weather Stations






























Interactive Weather Map
Tropical Storm Tracking
New forecast layout! Learn more

10-Day Weather Forecast

Advertisements
Track Severe Weather on mobile